Terminal Aerodrome Forecast
Issued by NWS Buffalo, NY

Home | Current Version | Previous Version | Text Only | Print | Product List | Glossary On
Versions: 1 2 3 4 5 6 7 8 9 10 11 12 13 14 15 16 17 18 19 20 21 22 23 24 25 26 27 28 29
000
FTUS41 KBUF 022322
TAFROC
TAF
KROC 022322Z 0300/0324 28012G22KT P6SM -SHRA OVC030
     FM030500 29014G20KT 4SM -SHRASN OVC025
     FM031100 31013KT P6SM OVC025
     FM031400 31013G20KT P6SM OVC025
     FM032100 30012G19KT P6SM OVC035=

USA.gov is the U.S. government's official web portal to all federal, state and local government web resources and services.